Time;durP1;ratioP1;P1;durP2;ratioP2;P2;SDS_P1;SDS_P2;PMS_P1;PMS_P2;Temp;Humidity;BMP_temperature;BMP_pressure;BME280_temperature;BME280_humidity;BME280_pressure;Samples;Min_cycle;Max_cycle;Signal;HPM_P1;HPM_P2
2022/10/31 00:00:17;;;;;;;24.17;19.93;;;16.30;99.90;;;;;;5052650;28;20543;-82
2022/10/31 00:02:44;;;;;;;22.70;20.47;;;16.30;99.90;;;;;;5043092;28;20569;-81
2022/10/31 00:05:11;;;;;;;22.07;19.73;;;16.30;99.90;;;;;;5041778;28;21035;-80
2022/10/31 00:07:39;;;;;;;21.00;18.80;;;16.30;99.90;;;;;;5052115;28;20802;-80
2022/10/31 00:10:08;;;;;;;21.30;18.90;;;16.30;99.90;;;;;;5053422;28;20521;-80
2022/10/31 00:12:50;;;;;;;20.57;18.57;;;16.30;99.90;;;;;;5052098;28;20467;-79
2022/10/31 00:15:17;;;;;;;20.47;18.37;;;16.30;99.90;;;;;;5051967;28;20529;-79
2022/10/31 00:17:55;;;;;;;20.13;18.03;;;16.30;99.90;;;;;;5053163;28;20552;-80
2022/10/31 00:20:25;;;;;;;20.50;17.90;;;16.30;99.90;;;;;;5052726;28;20477;-81
2022/10/31 00:22:59;;;;;;;19.90;17.60;;;16.30;99.90;;;;;;5053023;28;20554;-80
2022/10/31 00:25:27;;;;;;;18.13;16.00;;;16.20;99.90;;;;;;5051900;28;20473;-79
2022/10/31 00:27:56;;;;;;;17.57;15.77;;;16.20;99.90;;;;;;5047883;28;20978;-78
2022/10/31 00:30:23;;;;;;;19.40;16.90;;;16.20;99.90;;;;;;5050310;28;20555;-80
2022/10/31 00:32:52;;;;;;;20.97;16.97;;;16.20;99.90;;;;;;5046068;28;20511;-79
2022/10/31 00:35:21;;;;;;;18.33;16.53;;;16.30;99.90;;;;;;5046513;28;20496;-79
2022/10/31 00:37:48;;;;;;;15.90;14.30;;;16.20;99.90;;;;;;5045718;28;20551;-79
2022/10/31 00:40:19;;;;;;;16.63;14.97;;;16.20;99.90;;;;;;5046315;28;20467;-79
2022/10/31 00:42:54;;;;;;;16.33;14.83;;;16.30;99.90;;;;;;5051539;28;20472;-79
2022/10/31 00:45:21;;;;;;;18.10;16.30;;;16.30;99.90;;;;;;5052912;28;21028;-78
2022/10/31 00:47:48;;;;;;;20.57;16.97;;;16.30;99.90;;;;;;5052415;28;20534;-79
2022/10/31 00:50:22;;;;;;;18.30;15.30;;;16.20;99.90;;;;;;5052883;28;20625;-79
2022/10/31 00:52:49;;;;;;;17.50;14.80;;;16.20;99.90;;;;;;5034668;28;20483;-79
2022/10/31 00:55:18;;;;;;;18.10;16.20;;;16.20;99.90;;;;;;5052572;28;20499;-78
2022/10/31 00:58:27;;;;;;;16.90;15.10;;;16.20;99.90;;;;;;5051837;28;20811;-80
2022/10/31 01:00:55;;;;;;;17.67;15.77;;;16.20;99.90;;;;;;5036730;28;20965;-80
2022/10/31 01:03:28;;;;;;;16.10;14.50;;;16.20;99.90;;;;;;5052578;28;20475;-80
2022/10/31 01:06:00;;;;;;;15.87;13.83;;;16.20;99.90;;;;;;5052090;28;20480;-79
2022/10/31 01:08:27;;;;;;;16.37;14.57;;;16.20;99.90;;;;;;5042953;28;20857;-80
2022/10/31 01:11:13;;;;;;;16.20;14.53;;;16.10;99.90;;;;;;5051473;28;20484;-79
2022/10/31 01:13:41;;;;;;;15.93;14.37;;;16.10;99.90;;;;;;5050179;28;20474;-80
2022/10/31 01:16:41;;;;;;;14.97;13.37;;;16.20;99.90;;;;;;5052710;28;20867;-79
2022/10/31 01:19:08;;;;;;;14.83;13.33;;;16.10;99.90;;;;;;5049649;28;20457;-79
2022/10/31 01:21:35;;;;;;;16.40;13.27;;;16.10;99.90;;;;;;5052421;28;20459;-79
2022/10/31 01:24:03;;;;;;;14.90;13.40;;;16.20;99.90;;;;;;5051563;28;20567;-78
2022/10/31 01:26:33;;;;;;;15.17;13.80;;;16.20;99.90;;;;;;5052167;28;20470;-79
2022/10/31 01:29:02;;;;;;;15.43;14.03;;;16.10;99.90;;;;;;5015730;28;20467;-78
2022/10/31 01:31:34;;;;;;;13.17;11.87;;;16.10;99.90;;;;;;5051487;28;20965;-78
2022/10/31 01:34:02;;;;;;;13.87;12.47;;;16.10;99.90;;;;;;5052201;28;20469;-78
2022/10/31 01:36:46;;;;;;;;;;;;;;;;;;;;;
2022/10/31 01:39:16;;;;;;;14.10;12.70;;;16.10;99.90;;;;;;5049607;28;20558;-79
2022/10/31 01:41:46;;;;;;;12.97;11.67;;;16.10;99.90;;;;;;5045632;28;21071;-78
2022/10/31 01:44:47;;;;;;;19.60;14.20;;;16.10;99.90;;;;;;5059421;28;20536;-79
2022/10/31 01:47:18;;;;;;;14.80;11.80;;;16.10;99.90;;;;;;5055922;28;20463;-78
2022/10/31 01:49:48;;;;;;;19.60;13.63;;;16.10;99.90;;;;;;5046662;28;20476;-79
2022/10/31 01:52:22;;;;;;;13.57;12.00;;;16.10;99.90;;;;;;5044717;28;20518;-79
2022/10/31 01:54:52;;;;;;;14.37;12.00;;;16.10;99.90;;;;;;5055526;28;20501;-79
2022/10/31 01:57:22;;;;;;;13.93;12.43;;;16.10;99.90;;;;;;5055779;28;20503;-80
2022/10/31 01:59:55;;;;;;;14.00;12.60;;;16.00;99.90;;;;;;5028068;28;20459;-80
2022/10/31 02:02:22;;;;;;;13.33;11.80;;;16.00;99.90;;;;;;5055590;28;20550;-79
2022/10/31 02:04:49;;;;;;;13.73;12.43;;;16.00;99.90;;;;;;5054801;28;20800;-80
2022/10/31 02:07:22;;;;;;;13.67;12.47;;;16.10;99.90;;;;;;5055931;28;20460;-79
2022/10/31 02:09:54;;;;;;;12.70;11.40;;;16.10;99.90;;;;;;5055261;28;20471;-78
2022/10/31 02:12:37;;;;;;;11.93;10.70;;;16.00;99.90;;;;;;5049331;28;20810;-79
2022/10/31 02:15:09;;;;;;;14.37;12.70;;;16.00;99.90;;;;;;5056485;28;20463;-79
2022/10/31 02:17:38;;;;;;;12.20;10.90;;;16.10;99.90;;;;;;5054635;28;20459;-80
2022/10/31 02:20:15;;;;;;;12.07;10.97;;;16.00;99.90;;;;;;5041153;28;20850;-79
2022/10/31 02:23:07;;;;;;;12.70;10.97;;;16.00;99.90;;;;;;5052259;28;20455;-79
2022/10/31 02:25:52;;;;;;;11.63;10.53;;;16.00;99.90;;;;;;5053942;28;20974;-79
2022/10/31 02:28:48;;;;;;;14.57;13.07;;;16.00;99.90;;;;;;5038827;28;20470;-81
2022/10/31 02:31:30;;;;;;;13.17;11.87;;;16.00;99.90;;;;;;5043850;28;20486;-82
2022/10/31 02:34:03;;;;;;;13.77;12.37;;;16.00;99.90;;;;;;5047147;28;20543;-79
2022/10/31 02:36:42;;;;;;;17.00;12.73;;;16.00;99.90;;;;;;5055374;28;20590;-81
2022/10/31 02:39:17;;;;;;;14.10;12.73;;;16.00;99.90;;;;;;5052525;28;20976;-81
2022/10/31 02:41:51;;;;;;;15.33;12.80;;;16.00;99.90;;;;;;5054625;28;20477;-82
2022/10/31 02:44:26;;;;;;;13.23;12.07;;;16.00;99.90;;;;;;5042231;28;20490;-80
2022/10/31 02:47:01;;;;;;;18.37;13.93;;;15.90;99.90;;;;;;5055275;28;20480;-82
2022/10/31 02:49:34;;;;;;;13.63;12.30;;;15.90;99.90;;;;;;5043682;28;20464;-80
2022/10/31 02:52:02;;;;;;;13.27;11.87;;;15.90;99.90;;;;;;5052200;28;20479;-82
2022/10/31 02:54:30;;;;;;;13.03;11.63;;;15.90;99.90;;;;;;5054280;28;20444;-78
2022/10/31 02:57:04;;;;;;;15.10;12.20;;;15.90;99.90;;;;;;5055250;28;20498;-80
2022/10/31 02:59:33;;;;;;;13.37;12.07;;;15.90;99.90;;;;;;5054368;28;20825;-82
2022/10/31 03:02:23;;;;;;;13.70;12.30;;;15.90;99.90;;;;;;5054587;28;20550;-82
2022/10/31 03:05:32;;;;;;;12.77;11.43;;;15.90;99.90;;;;;;5054410;28;20525;-82
2022/10/31 03:08:07;;;;;;;13.10;11.80;;;15.90;99.90;;;;;;4993182;28;20985;-82
2022/10/31 03:10:41;;;;;;;13.53;11.00;;;15.90;99.90;;;;;;4993837;28;20508;-82
2022/10/31 03:13:16;;;;;;;15.03;13.00;;;15.90;99.90;;;;;;5017716;28;20487;-80
2022/10/31 03:15:49;;;;;;;12.63;11.53;;;15.90;99.90;;;;;;5054797;28;20479;-80
2022/10/31 03:18:27;;;;;;;12.30;11.23;;;15.90;99.90;;;;;;5054616;28;20567;-82
2022/10/31 03:20:58;;;;;;;11.53;10.33;;;15.90;99.90;;;;;;5052533;28;20976;-81
2022/10/31 03:23:28;;;;;;;15.27;11.90;;;15.90;99.90;;;;;;5054097;28;20525;-82
2022/10/31 03:25:55;;;;;;;16.83;11.60;;;15.90;99.90;;;;;;5053590;28;20495;-81
2022/10/31 03:28:31;;;;;;;12.57;11.27;;;15.90;99.90;;;;;;5054909;28;20487;-79
2022/10/31 03:31:00;;;;;;;16.30;11.97;;;15.90;99.90;;;;;;5054040;28;20856;-80
2022/10/31 03:33:35;;;;;;;15.07;11.10;;;15.90;99.90;;;;;;5054294;28;20460;-79
2022/10/31 03:36:06;;;;;;;13.73;11.47;;;15.90;99.90;;;;;;5053793;28;20548;-79
2022/10/31 03:38:34;;;;;;;12.37;11.17;;;15.80;99.90;;;;;;5054309;28;20972;-79
2022/10/31 03:41:06;;;;;;;13.47;11.87;;;15.80;99.90;;;;;;5053336;28;20474;-79
2022/10/31 03:43:39;;;;;;;12.50;11.20;;;15.80;99.90;;;;;;5054297;28;20485;-79
2022/10/31 03:46:10;;;;;;;10.80;9.70;;;15.90;99.90;;;;;;5053780;28;20472;-79
2022/10/31 03:48:38;;;;;;;13.17;9.83;;;15.80;99.90;;;;;;5054630;28;20478;-79
2022/10/31 03:51:49;;;;;;;11.87;10.70;;;15.80;99.90;;;;;;5053377;28;20496;-79
2022/10/31 03:54:25;;;;;;;15.30;13.00;;;15.80;99.90;;;;;;5053510;28;20455;-79
2022/10/31 03:56:57;;;;;;;13.97;12.57;;;15.80;99.90;;;;;;5054246;28;20911;-80
2022/10/31 03:59:27;;;;;;;14.80;11.80;;;15.80;99.90;;;;;;5054075;28;20493;-79
2022/10/31 04:01:59;;;;;;;13.60;11.50;;;15.80;99.90;;;;;;5053677;28;20543;-79
2022/10/31 04:04:50;;;;;;;;;;;;;;;;;;;;;
2022/10/31 04:07:20;;;;;;;12.60;10.30;;;15.80;99.90;;;;;;5052319;28;21366;-79
2022/10/31 04:09:49;;;;;;;10.57;9.57;;;15.80;99.90;;;;;;5053744;28;20467;-79
2022/10/31 04:12:17;;;;;;;14.60;13.13;;;15.80;99.90;;;;;;5053182;28;20548;-79
2022/10/31 04:14:47;;;;;;;10.93;9.87;;;15.80;99.90;;;;;;5053694;28;20551;-78
2022/10/31 04:17:17;;;;;;;13.00;11.20;;;15.80;99.90;;;;;;5052933;28;20746;-79
2022/10/31 04:19:45;;;;;;;10.80;9.80;;;15.80;99.90;;;;;;5053645;28;20486;-79
2022/10/31 04:22:12;;;;;;;12.90;11.40;;;15.80;99.90;;;;;;5053404;28;20473;-78
2022/10/31 04:24:41;;;;;;;14.60;11.30;;;15.80;99.90;;;;;;5052568;28;20529;-78
2022/10/31 04:27:11;;;;;;;12.13;10.93;;;15.70;99.90;;;;;;5052748;28;20464;-79
2022/10/31 04:29:38;;;;;;;13.30;10.80;;;15.70;99.90;;;;;;5053281;28;20513;-80
2022/10/31 04:32:05;;;;;;;11.83;10.60;;;15.70;99.90;;;;;;5052801;28;20471;-80
2022/10/31 04:34:32;;;;;;;11.30;10.10;;;15.70;99.90;;;;;;5053261;28;20570;-80
2022/10/31 04:37:01;;;;;;;13.57;11.40;;;15.70;99.90;;;;;;5052458;28;20482;-80
2022/10/31 04:39:28;;;;;;;10.60;9.60;;;15.70;99.90;;;;;;5052950;28;21041;-80
2022/10/31 04:41:55;;;;;;;18.67;10.63;;;15.70;99.90;;;;;;5052653;28;20562;-79
2022/10/31 04:44:22;;;;;;;11.10;10.00;;;15.70;99.90;;;;;;5053318;28;20546;-80
2022/10/31 04:46:49;;;;;;;11.80;10.63;;;15.70;99.90;;;;;;5052934;28;20498;-80
2022/10/31 04:49:22;;;;;;;12.43;10.23;;;15.70;99.90;;;;;;5042426;28;20503;-81
2022/10/31 04:51:50;;;;;;;12.30;11.13;;;15.70;99.90;;;;;;5052002;28;20475;-79
2022/10/31 04:54:18;;;;;;;14.07;12.00;;;15.70;99.90;;;;;;5052391;28;20485;-79
2022/10/31 04:56:45;;;;;;;18.03;12.00;;;15.70;99.90;;;;;;5052931;28;20488;-80
2022/10/31 04:59:14;;;;;;;14.53;11.60;;;15.60;99.90;;;;;;5051977;28;20545;-79
2022/10/31 05:01:41;;;;;;;12.07;10.80;;;15.60;99.90;;;;;;5052894;28;20467;-80
2022/10/31 05:04:07;;;;;;;11.60;10.27;;;15.60;99.90;;;;;;5052078;28;20516;-80
2022/10/31 05:09:40;;;;;;;13.40;12.10;;;15.60;99.90;;;;;;5051021;28;20996;-80
2022/10/31 05:12:10;;;;;;;14.30;11.53;;;15.60;99.90;;;;;;5053304;28;20478;-80
2022/10/31 05:14:37;;;;;;;16.27;11.27;;;15.60;99.90;;;;;;5053743;28;20443;-78
2022/10/31 05:17:04;;;;;;;12.10;10.90;;;15.50;99.90;;;;;;5055554;28;20562;-78
2022/10/31 05:19:31;;;;;;;13.27;11.90;;;15.50;99.90;;;;;;5056512;28;20463;-78
2022/10/31 05:21:58;;;;;;;14.70;10.50;;;15.50;99.90;;;;;;5055056;28;20539;-79
2022/10/31 05:24:24;;;;;;;12.13;10.10;;;15.50;99.90;;;;;;5047278;28;20562;-79
2022/10/31 05:26:53;;;;;;;15.50;11.90;;;15.50;99.90;;;;;;5053164;28;20485;-78
2022/10/31 05:29:20;;;;;;;13.13;11.60;;;15.50;99.90;;;;;;5052103;28;20470;-78
2022/10/31 05:31:46;;;;;;;14.07;10.40;;;15.40;99.90;;;;;;5052371;28;20510;-79
2022/10/31 05:34:15;;;;;;;13.23;10.90;;;15.50;99.90;;;;;;5052346;28;20830;-79
2022/10/31 05:36:42;;;;;;;12.03;10.83;;;15.50;99.90;;;;;;5051620;28;20493;-77
2022/10/31 05:39:09;;;;;;;13.07;11.67;;;15.40;99.90;;;;;;5051991;28;20485;-79
2022/10/31 05:41:36;;;;;;;11.97;10.73;;;15.40;99.90;;;;;;5051732;28;20471;-78
2022/10/31 05:44:05;;;;;;;12.50;11.30;;;15.40;99.90;;;;;;5052300;28;20494;-79
2022/10/31 05:46:32;;;;;;;11.80;10.57;;;15.40;99.90;;;;;;5051820;28;20482;-80
2022/10/31 05:48:59;;;;;;;14.37;12.60;;;15.40;99.90;;;;;;5052403;28;20498;-81
2022/10/31 05:51:26;;;;;;;15.87;12.70;;;15.40;99.90;;;;;;5051949;28;20463;-81
2022/10/31 05:53:53;;;;;;;12.33;11.00;;;15.40;99.90;;;;;;5052577;28;20491;-81
2022/10/31 05:56:20;;;;;;;13.90;11.60;;;15.30;99.90;;;;;;5052358;28;20471;-81
2022/10/31 05:58:46;;;;;;;12.60;11.30;;;15.30;99.90;;;;;;5051417;28;21359;-81
2022/10/31 06:01:15;;;;;;;13.93;11.47;;;15.30;99.90;;;;;;5052398;28;20554;-81
2022/10/31 06:03:42;;;;;;;11.40;10.30;;;15.30;99.90;;;;;;5052068;28;20980;-81
2022/10/31 06:06:35;;;;;;;12.10;10.50;;;15.30;99.90;;;;;;5051290;28;20466;-80
2022/10/31 06:09:02;;;;;;;11.83;10.70;;;15.30;99.90;;;;;;5047108;28;20467;-82
2022/10/31 06:11:35;;;;;;;13.60;12.20;;;15.30;99.90;;;;;;5052861;28;20520;-81
2022/10/31 06:14:05;;;;;;;13.17;11.50;;;15.30;99.90;;;;;;5053384;28;20474;-79
2022/10/31 06:16:36;;;;;;;15.17;11.00;;;15.30;99.90;;;;;;5054136;28;20506;-82
2022/10/31 06:19:05;;;;;;;12.33;11.13;;;15.30;99.90;;;;;;5053914;28;20490;-78
2022/10/31 06:21:32;;;;;;;12.03;10.27;;;15.30;99.90;;;;;;5062056;28;20463;-79
2022/10/31 06:23:59;;;;;;;14.00;10.80;;;15.30;99.90;;;;;;5066387;28;20490;-78
2022/10/31 06:26:28;;;;;;;11.73;10.53;;;15.30;99.90;;;;;;5056232;28;20474;-78
2022/10/31 06:28:56;;;;;;;10.83;9.70;;;15.30;99.90;;;;;;5065369;28;20475;-79
2022/10/31 06:31:23;;;;;;;10.80;9.70;;;15.30;99.90;;;;;;5054444;28;20463;-81
2022/10/31 06:33:52;;;;;;;12.40;9.70;;;15.30;99.90;;;;;;5055811;28;20467;-81
2022/10/31 06:36:19;;;;;;;15.53;12.30;;;15.40;99.90;;;;;;5055264;28;20554;-80
2022/10/31 06:38:59;;;;;;;15.33;11.80;;;15.40;99.90;;;;;;5055625;28;20467;-79
2022/10/31 06:41:27;;;;;;;12.00;10.80;;;15.30;99.90;;;;;;5054822;28;20501;-78
2022/10/31 06:43:54;;;;;;;13.80;12.30;;;15.40;99.90;;;;;;5045580;28;20582;-79
2022/10/31 06:46:21;;;;;;;14.83;10.40;;;15.40;99.90;;;;;;5054414;28;20475;-79
2022/10/31 06:48:47;;;;;;;13.03;11.50;;;15.40;99.90;;;;;;5055291;28;20495;-79
2022/10/31 06:51:16;;;;;;;12.30;11.10;;;15.40;99.90;;;;;;5044638;28;20502;-81
2022/10/31 06:53:45;;;;;;;14.10;10.10;;;15.40;99.90;;;;;;5054789;28;20490;-81
2022/10/31 06:56:12;;;;;;;13.00;11.80;;;15.40;99.90;;;;;;5055389;28;20502;-81
2022/10/31 06:58:42;;;;;;;13.17;11.87;;;15.40;99.90;;;;;;5054886;28;20482;-82
2022/10/31 07:01:09;;;;;;;15.63;12.77;;;15.40;99.90;;;;;;5055426;28;20474;-78
2022/10/31 07:03:36;;;;;;;14.03;12.53;;;15.40;99.90;;;;;;5054478;28;20475;-82
2022/10/31 07:06:03;;;;;;;14.50;12.47;;;15.40;99.90;;;;;;5055494;28;20566;-81
2022/10/31 07:08:32;;;;;;;17.20;13.80;;;15.40;99.90;;;;;;5054784;28;20570;-79
2022/10/31 07:10:59;;;;;;;13.97;12.10;;;15.40;99.90;;;;;;5054584;28;20476;-80
2022/10/31 07:13:26;;;;;;;13.47;10.90;;;15.50;99.90;;;;;;5054052;28;20507;-82
2022/10/31 07:15:54;;;;;;;14.30;11.23;;;15.40;99.90;;;;;;5054675;28;20478;-83
2022/10/31 07:18:23;;;;;;;12.27;11.10;;;15.50;99.90;;;;;;5054806;28;20486;-82
2022/10/31 07:20:52;;;;;;;13.33;11.93;;;15.50;99.90;;;;;;5054364;28;20454;-78
2022/10/31 07:23:22;;;;;;;19.60;12.50;;;15.60;99.90;;;;;;5054563;28;20463;-80
2022/10/31 07:25:56;;;;;;;17.40;13.50;;;15.60;99.90;;;;;;5053228;28;20547;-80
2022/10/31 07:28:26;;;;;;;14.30;12.80;;;15.70;99.90;;;;;;5054427;28;20466;-79
2022/10/31 07:30:56;;;;;;;13.63;12.23;;;15.70;99.90;;;;;;5053794;28;20851;-79
2022/10/31 07:33:38;;;;;;;12.97;11.20;;;15.80;99.90;;;;;;5054289;28;20993;-80
2022/10/31 07:36:08;;;;;;;12.03;10.77;;;15.90;99.90;;;;;;5054202;28;20543;-79
2022/10/31 07:38:35;;;;;;;13.43;12.03;;;15.90;99.90;;;;;;5042687;28;20585;-80
2022/10/31 07:41:03;;;;;;;19.10;14.47;;;15.90;99.90;;;;;;5053523;28;20471;-79
2022/10/31 07:43:33;;;;;;;11.47;9.93;;;16.00;99.90;;;;;;5052050;28;20558;-80
2022/10/31 07:46:00;;;;;;;13.07;11.60;;;16.00;99.90;;;;;;5053909;28;20497;-78
2022/10/31 07:51:26;;;;;;;17.20;11.93;;;16.10;99.90;;;;;;4991802;28;21035;-82
2022/10/31 07:53:55;;;;;;;14.93;13.30;;;16.10;99.90;;;;;;5036489;28;20461;-82
2022/10/31 07:56:23;;;;;;;18.33;14.37;;;16.20;99.90;;;;;;5054941;28;20945;-82
2022/10/31 07:59:22;;;;;;;14.13;12.73;;;16.20;99.90;;;;;;5053657;28;20461;-82
2022/10/31 08:01:49;;;;;;;17.87;14.70;;;16.20;99.90;;;;;;5049817;28;20540;-82
2022/10/31 08:04:16;;;;;;;16.63;14.83;;;16.20;99.90;;;;;;5053535;28;20550;-82
2022/10/31 08:06:42;;;;;;;20.07;13.87;;;16.20;99.90;;;;;;5053724;28;20562;-82
2022/10/31 08:09:09;;;;;;;17.00;12.73;;;16.20;99.90;;;;;;5054218;28;20491;-82
2022/10/31 08:11:38;;;;;;;15.90;13.67;;;16.30;99.90;;;;;;5053536;28;20471;-81
2022/10/31 08:14:05;;;;;;;14.93;13.00;;;16.30;99.90;;;;;;5053829;28;20818;-82
2022/10/31 08:16:33;;;;;;;14.47;12.97;;;16.30;99.90;;;;;;5053685;28;20547;-80
2022/10/31 08:19:00;;;;;;;19.23;13.03;;;16.30;99.90;;;;;;5053900;28;20498;-81
2022/10/31 08:21:30;;;;;;;16.03;13.10;;;16.30;99.90;;;;;;5053559;28;20542;-82
2022/10/31 08:23:59;;;;;;;15.40;13.33;;;16.30;99.90;;;;;;5053468;28;20471;-80
2022/10/31 08:26:28;;;;;;;15.50;13.90;;;16.30;99.90;;;;;;5053515;28;20471;-79
2022/10/31 08:28:56;;;;;;;21.10;14.27;;;16.30;99.90;;;;;;5052722;28;20468;-81
2022/10/31 08:31:25;;;;;;;17.20;15.13;;;16.30;99.90;;;;;;5046636;28;20555;-81
2022/10/31 08:33:53;;;;;;;16.90;12.73;;;16.30;99.90;;;;;;5052964;28;20468;-78
2022/10/31 08:36:22;;;;;;;15.57;13.73;;;16.30;99.90;;;;;;5052925;28;20529;-79
2022/10/31 08:38:50;;;;;;;19.47;17.13;;;16.30;99.90;;;;;;5052679;28;20476;-79
2022/10/31 08:41:17;;;;;;;15.33;13.73;;;16.30;99.90;;;;;;5053832;28;21434;-79
2022/10/31 08:43:44;;;;;;;18.97;16.43;;;16.30;99.90;;;;;;5052292;28;20557;-79
2022/10/31 08:46:13;;;;;;;25.13;17.67;;;16.30;99.90;;;;;;5053357;28;20471;-81
2022/10/31 08:48:42;;;;;;;23.10;17.20;;;16.30;99.90;;;;;;5052337;28;20551;-78
2022/10/31 08:51:10;;;;;;;19.80;15.87;;;16.30;99.90;;;;;;5053514;28;20537;-80
2022/10/31 08:53:37;;;;;;;21.50;15.57;;;16.30;99.90;;;;;;5053184;28;20472;-80
2022/10/31 08:56:13;;;;;;;17.57;14.93;;;16.30;99.90;;;;;;5052455;28;20925;-81
2022/10/31 08:58:40;;;;;;;20.90;16.20;;;16.30;99.90;;;;;;5052542;28;20475;-81
2022/10/31 09:01:07;;;;;;;21.17;16.20;;;16.30;99.90;;;;;;5053310;28;20934;-78
2022/10/31 09:03:35;;;;;;;20.93;16.43;;;16.30;99.90;;;;;;5053387;28;20467;-79
2022/10/31 09:06:08;;;;;;;15.93;14.33;;;16.30;99.90;;;;;;5052520;28;20460;-79
2022/10/31 09:08:43;;;;;;;17.23;13.20;;;16.30;99.90;;;;;;5052649;28;20465;-78
2022/10/31 09:11:16;;;;;;;15.37;13.77;;;16.30;99.90;;;;;;5052924;28;20558;-80
2022/10/31 09:13:43;;;;;;;16.37;14.57;;;16.30;99.90;;;;;;5052610;28;20472;-80
2022/10/31 09:16:10;;;;;;;21.90;17.07;;;16.30;99.90;;;;;;5041092;28;20467;-80
2022/10/31 09:18:38;;;;;;;21.10;14.77;;;16.40;99.90;;;;;;5052960;28;20463;-79
2022/10/31 09:21:06;;;;;;;17.57;15.73;;;16.30;99.90;;;;;;5043672;28;20538;-82
2022/10/31 09:23:33;;;;;;;15.57;13.97;;;16.40;99.90;;;;;;5052969;28;20935;-82
2022/10/31 09:26:01;;;;;;;15.90;14.33;;;16.40;99.90;;;;;;5052016;28;20465;-82
2022/10/31 09:28:28;;;;;;;17.00;13.23;;;16.40;99.90;;;;;;5052957;28;20469;-80
2022/10/31 09:30:55;;;;;;;14.63;13.00;;;16.40;99.90;;;;;;5051997;28;20476;-80
2022/10/31 09:33:24;;;;;;;15.70;12.40;;;16.40;99.90;;;;;;5052628;28;20488;-82
2022/10/31 09:36:11;;;;;;;19.43;17.17;;;16.40;99.90;;;;;;5052646;28;20552;-81
2022/10/31 09:38:39;;;;;;;16.90;15.30;;;16.50;99.90;;;;;;5052047;28;20463;-80
2022/10/31 09:41:18;;;;;;;16.93;15.07;;;16.50;99.90;;;;;;5042479;28;20491;-80
2022/10/31 09:43:57;;;;;;;16.70;12.93;;;16.50;99.90;;;;;;5040240;28;20472;-79
2022/10/31 09:46:33;;;;;;;16.90;14.00;;;16.50;99.90;;;;;;5052665;28;20517;-81
2022/10/31 09:49:30;;;;;;;16.60;14.33;;;16.50;99.90;;;;;;5051151;28;20481;-81
2022/10/31 09:52:04;;;;;;;20.13;14.50;;;16.50;99.90;;;;;;5050514;28;20486;-81
2022/10/31 09:54:36;;;;;;;16.87;14.17;;;16.50;99.90;;;;;;5052347;28;20485;-81
2022/10/31 09:57:04;;;;;;;15.97;14.27;;;16.50;99.90;;;;;;5041712;28;20469;-82
2022/10/31 09:59:34;;;;;;;15.10;13.57;;;16.60;99.90;;;;;;5050861;28;20526;-81
2022/10/31 10:02:05;;;;;;;16.80;12.20;;;16.60;99.90;;;;;;5052646;28;20510;-82
2022/10/31 10:04:39;;;;;;;12.90;11.60;;;16.60;99.90;;;;;;5047390;28;20472;-81
2022/10/31 10:07:15;;;;;;;16.57;14.80;;;16.60;99.90;;;;;;5046068;28;20466;-83
2022/10/31 10:09:42;;;;;;;24.30;19.77;;;16.70;99.90;;;;;;5061165;28;20820;-82
2022/10/31 10:12:24;;;;;;;19.07;17.07;;;16.80;99.90;;;;;;5056097;28;20508;-82
2022/10/31 10:15:11;;;;;;;17.77;15.43;;;16.80;99.90;;;;;;5053939;28;20466;-80
2022/10/31 10:17:44;;;;;;;17.90;14.00;;;16.80;99.90;;;;;;5055675;28;20469;-80
2022/10/31 10:20:31;;;;;;;14.10;12.70;;;16.90;99.90;;;;;;5055933;28;20462;-80
2022/10/31 10:23:20;;;;;;;15.97;14.27;;;16.90;99.90;;;;;;5054876;28;20493;-80
2022/10/31 10:25:54;;;;;;;14.50;12.93;;;16.90;99.90;;;;;;5058163;28;20479;-82
2022/10/31 10:28:23;;;;;;;15.77;14.37;;;17.00;99.90;;;;;;5050073;28;20478;-81
2022/10/31 10:30:54;;;;;;;14.50;12.60;;;17.00;99.90;;;;;;5048290;28;20468;-82
2022/10/31 10:33:25;;;;;;;16.90;13.53;;;17.00;99.90;;;;;;5055811;28;20993;-82
2022/10/31 10:35:58;;;;;;;18.43;13.40;;;17.10;99.90;;;;;;5055284;28;20478;-83
2022/10/31 10:38:40;;;;;;;16.03;13.53;;;17.10;99.90;;;;;;5052939;28;20572;-81
2022/10/31 10:41:14;;;;;;;20.17;16.07;;;17.20;99.90;;;;;;5065610;28;20492;-81
2022/10/31 10:49:41;;;;;;;17.43;14.97;;;17.30;99.90;;;;;;4996558;28;20964;-81
2022/10/31 10:52:19;;;;;;;19.23;16.37;;;17.30;99.90;;;;;;4977176;28;20557;-82
2022/10/31 10:55:00;;;;;;;19.90;17.40;;;17.40;99.90;;;;;;4992726;28;20472;-82
2022/10/31 10:57:49;;;;;;;23.23;17.70;;;17.40;99.90;;;;;;5050099;28;20462;-80
2022/10/31 11:00:22;;;;;;;21.67;18.60;;;17.50;99.90;;;;;;5054366;28;20527;-80
2022/10/31 11:02:53;;;;;;;19.53;16.70;;;17.50;99.90;;;;;;5054773;28;20470;-79
2022/10/31 11:05:27;;;;;;;22.27;17.60;;;17.50;99.90;;;;;;5049381;28;20532;-79
2022/10/31 11:11:26;;;;;;;24.30;20.07;;;17.60;99.90;;;;;;5054853;28;20507;-79
2022/10/31 11:14:03;;;;;;;18.37;16.30;;;17.70;99.90;;;;;;5053100;28;20816;-79
2022/10/31 11:16:34;;;;;;;19.73;17.63;;;17.70;99.90;;;;;;5055246;28;20979;-79
2022/10/31 11:19:14;;;;;;;21.67;17.57;;;17.70;99.90;;;;;;5053814;28;20865;-80
2022/10/31 11:21:46;;;;;;;20.00;16.10;;;17.80;99.90;;;;;;5054715;28;20469;-79
2022/10/31 11:24:21;;;;;;;16.97;14.77;;;17.70;99.90;;;;;;5047144;28;20476;-78
2022/10/31 11:26:52;;;;;;;19.47;15.53;;;17.80;99.90;;;;;;5055817;28;20482;-79
2022/10/31 11:29:24;;;;;;;20.20;17.03;;;17.80;99.90;;;;;;5054694;28;20453;-78
2022/10/31 11:31:54;;;;;;;21.80;17.90;;;17.90;99.90;;;;;;5035471;28;20475;-79
2022/10/31 11:34:30;;;;;;;20.00;17.47;;;17.90;99.90;;;;;;5054246;28;20458;-80
2022/10/31 11:37:04;;;;;;;26.60;19.13;;;17.90;99.90;;;;;;5054872;28;20474;-78
2022/10/31 11:39:31;;;;;;;23.30;20.00;;;18.00;99.90;;;;;;5053892;28;20508;-80
2022/10/31 11:42:04;;;;;;;26.00;20.63;;;18.00;99.90;;;;;;5054735;28;20471;-79
2022/10/31 11:44:33;;;;;;;20.67;17.23;;;18.00;99.90;;;;;;5054033;28;20465;-79
2022/10/31 11:47:03;;;;;;;19.70;17.60;;;18.00;99.90;;;;;;5043967;28;20513;-79
2022/10/31 11:49:40;;;;;;;28.10;19.03;;;18.10;99.90;;;;;;5031737;28;20558;-78
2022/10/31 11:52:13;;;;;;;22.00;17.03;;;18.10;99.90;;;;;;5053455;28;20533;-80
2022/10/31 11:54:47;;;;;;;22.87;18.17;;;18.10;99.90;;;;;;5052891;28;20520;-79
2022/10/31 11:57:26;;;;;;;21.67;17.07;;;18.10;99.90;;;;;;5053262;28;20474;-79
2022/10/31 11:59:56;;;;;;;29.03;21.43;;;18.10;99.90;;;;;;5054592;28;20520;-78
2022/10/31 12:02:23;;;;;;;26.80;20.80;;;18.20;99.90;;;;;;5043068;28;20663;-78
2022/10/31 12:04:57;;;;;;;26.03;22.77;;;18.20;99.90;;;;;;5051595;28;20471;-78
2022/10/31 12:07:28;;;;;;;26.30;22.03;;;18.20;99.90;;;;;;5042420;28;20479;-78
2022/10/31 12:13:03;;;;;;;26.23;20.30;;;18.30;99.90;;;;;;5051543;28;20447;-78
2022/10/31 12:15:33;;;;;;;22.23;19.23;;;18.30;99.90;;;;;;5046895;28;20470;-81
2022/10/31 12:18:33;;;;;;;28.20;22.90;;;18.30;99.90;;;;;;5051082;28;20475;-80
2022/10/31 12:21:15;;;;;;;23.00;18.63;;;18.30;99.90;;;;;;5050818;28;20471;-81
2022/10/31 12:23:55;;;;;;;27.90;20.57;;;18.30;99.90;;;;;;5053790;28;20529;-81
2022/10/31 12:26:35;;;;;;;21.33;18.93;;;18.40;99.90;;;;;;5046485;28;20612;-80
2022/10/31 12:29:21;;;;;;;20.90;18.67;;;18.40;99.90;;;;;;5044928;28;20485;-81
2022/10/31 12:32:06;;;;;;;21.77;19.00;;;18.40;99.90;;;;;;5042571;28;20479;-79
2022/10/31 12:35:00;;;;;;;21.17;18.90;;;18.40;99.90;;;;;;5052252;28;20467;-78
2022/10/31 12:37:52;;;;;;;24.00;19.33;;;18.40;99.90;;;;;;5048430;28;20463;-80
2022/10/31 12:40:55;;;;;;;28.20;18.40;;;18.40;99.90;;;;;;5051873;28;20539;-80
2022/10/31 12:43:47;;;;;;;23.50;20.87;;;18.40;99.90;;;;;;5040644;28;20478;-78
2022/10/31 12:46:27;;;;;;;24.03;18.90;;;18.40;99.90;;;;;;5023945;28;20591;-78
2022/10/31 12:49:22;;;;;;;20.07;17.90;;;18.50;99.90;;;;;;5022191;28;20808;-78
2022/10/31 12:52:07;;;;;;;27.47;18.80;;;18.40;99.90;;;;;;5046689;28;20551;-79
2022/10/31 12:54:58;;;;;;;23.47;19.10;;;18.50;99.90;;;;;;5043441;28;20474;-78
2022/10/31 12:57:37;;;;;;;27.87;18.47;;;18.50;99.90;;;;;;5041535;28;20466;-79
2022/10/31 13:00:11;;;;;;;25.33;18.70;;;18.50;99.90;;;;;;5042657;28;20463;-78
2022/10/31 13:02:46;;;;;;;22.97;16.40;;;18.50;99.90;;;;;;5053327;28;20534;-78
2022/10/31 13:05:23;;;;;;;20.57;16.67;;;18.50;99.90;;;;;;5041293;28;20470;-78
2022/10/31 13:07:55;;;;;;;25.30;19.97;;;18.50;99.90;;;;;;5050619;28;20475;-79
2022/10/31 13:10:27;;;;;;;23.80;19.70;;;18.50;99.90;;;;;;5054284;28;20532;-81
2022/10/31 13:12:59;;;;;;;27.43;20.13;;;18.50;99.90;;;;;;5052601;28;20558;-82
2022/10/31 13:15:32;;;;;;;25.00;19.70;;;18.50;99.90;;;;;;5053318;28;20467;-81